Rzeszow-Jasionka Airport Rzeszow PL
ICAO: EPRZ
IATA: RZE
Category: Medium
Scheduled Services: Yes

Elevation: 675 ft
TransAlt. 6500 ft.

Airport Communications:
RZESZOW TWR:126.8

EPRZ Zoom In..

If you have problems with the map follow the link
https://www.worldairports.se/pages/airport.php?
ICAO=EPRZ

Runways:

(A) RW 09 length 10499 ft width 148 ft
---- / hdg 86

(B) RW 27 length 10499 ft width 148 ft
ILS 110.30 / hdg 266

Location; EPRZ
Day. 05 / Time. 14.30 Zulu
* QNH: 1022
* Temperature: 02° c. 35.6°f.
* Wind from: 210° Speed 12 kn.
Dewpoint: -06° c.
Visibility: 10 km or more,
No clouds below 1,500 m.
No cumulonimbus, and no significant weather
fenomena in the aerodrome or its vicinity.

EPRZ 051430Z 21012KT CAVOK 02/M06 Q1022


Wind From 210°
Speed 12 kn.

 
 
jpsmedia worldairports.se 2019   terms of use